Time;durP1;ratioP1;P1;durP2;ratioP2;P2;SDS_P1;SDS_P2;PMS_P1;PMS_P2;Temp;Humidity;BMP_temperature;BMP_pressure;BME280_temperature;BME280_humidity;BME280_pressure;Samples;Min_cycle;Max_cycle;Signal;HPM_P1;HPM_P2
2023/12/25 00:01:06;;;;;;;8.30;3.90;;;;;;;11.32;100.00;100193.78;5071721;28;20117;-47
2023/12/25 00:03:35;;;;;;;8.77;3.65;;;;;;;11.32;100.00;100207.78;5070276;28;20076;-48
2023/12/25 00:06:16;;;;;;;10.02;4.18;;;;;;;11.32;100.00;100213.03;5071709;28;20048;-60
2023/12/25 00:08:45;;;;;;;8.40;3.92;;;;;;;11.37;100.00;100203.94;5067860;28;20045;-59
2023/12/25 00:11:13;;;;;;;12.27;4.10;;;;;;;11.31;100.00;100216.63;5069424;28;20049;-59
2023/12/25 00:13:41;;;;;;;10.05;3.65;;;;;;;11.30;100.00;100209.69;5074570;28;20044;-59
2023/12/25 00:16:10;;;;;;;7.90;3.65;;;;;;;11.32;100.00;100213.03;5075090;28;20045;-59
2023/12/25 00:18:38;;;;;;;7.85;3.70;;;;;;;11.29;100.00;100205.38;5075200;28;20135;-59
2023/12/25 00:21:06;;;;;;;9.48;3.50;;;;;;;11.29;100.00;100192.22;5074000;28;20059;-60
2023/12/25 00:23:36;;;;;;;12.48;3.47;;;;;;;11.27;100.00;100188.03;5073748;28;20045;-59
2023/12/25 00:26:05;;;;;;;8.05;3.05;;;;;;;11.24;100.00;100194.38;5075026;28;20047;-58
2023/12/25 00:28:33;;;;;;;8.02;3.65;;;;;;;11.25;100.00;100201.31;5075133;28;20504;-59
2023/12/25 00:31:01;;;;;;;12.60;3.53;;;;;;;11.25;100.00;100195.22;5075105;28;20483;-59
2023/12/25 00:33:30;;;;;;;6.35;3.00;;;;;;;11.24;100.00;100201.44;5075021;28;20040;-59
2023/12/25 00:35:58;;;;;;;10.40;3.28;;;;;;;11.24;100.00;100194.38;5074878;28;20041;-59
2023/12/25 00:38:29;;;;;;;8.35;3.00;;;;;;;11.24;100.00;100193.56;5074675;28;20098;-59
2023/12/25 00:40:58;;;;;;;9.15;3.13;;;;;;;11.25;100.00;100206.59;5074704;28;20052;-60
2023/12/25 00:43:27;;;;;;;8.20;3.00;;;;;;;11.24;100.00;100185.66;5074550;28;20053;-59
2023/12/25 00:45:57;;;;;;;8.60;2.80;;;;;;;11.25;100.00;100195.22;5074332;28;20452;-59
2023/12/25 00:48:25;;;;;;;6.85;2.72;;;;;;;11.24;100.00;100210.16;5071711;28;20079;-59
2023/12/25 00:50:54;;;;;;;8.88;2.55;;;;;;;11.24;100.00;100211.97;5072837;28;20059;-59
2023/12/25 00:53:24;;;;;;;7.72;2.80;;;;;;;11.23;100.00;100216.38;5074791;28;20061;-58
2023/12/25 00:55:52;;;;;;;8.65;3.13;;;;;;;11.26;100.00;100224.06;5074738;28;20123;-58
2023/12/25 00:58:22;;;;;;;9.77;3.60;;;;;;;11.23;100.00;100216.38;5074624;28;20511;-59
2023/12/25 01:00:50;;;;;;;10.55;3.22;;;;;;;11.22;100.00;100221.78;5073157;28;20048;-60
2023/12/25 01:03:19;;;;;;;8.70;4.07;;;;;;;11.16;100.00;100229.19;5070739;28;20052;-59
2023/12/25 01:05:47;;;;;;;9.77;4.30;;;;;;;11.14;100.00;100230.28;5071625;28;20132;-59
2023/12/25 01:08:18;;;;;;;9.40;4.55;;;;;;;11.14;100.00;100230.28;5074287;28;20087;-59
2023/12/25 01:10:46;;;;;;;8.63;4.55;;;;;;;11.13;100.00;100234.69;5074341;28;20056;-59
2023/12/25 01:13:17;;;;;;;11.30;4.70;;;;;;;11.13;100.00;100220.69;5074140;28;20068;-59
2023/12/25 01:15:46;;;;;;;12.85;4.40;;;;;;;11.11;100.00;100238.38;5072524;28;20052;-59
2023/12/25 01:18:14;;;;;;;8.95;3.67;;;;;;;11.09;100.00;100256.94;5070848;28;20055;-59
2023/12/25 01:20:43;;;;;;;14.57;3.30;;;;;;;11.08;100.00;100262.31;5073510;28;20051;-59
2023/12/25 01:23:12;;;;;;;6.15;1.85;;;;;;;10.98;100.00;100252.50;5073655;28;20044;-59
2023/12/25 01:25:40;;;;;;;10.52;2.20;;;;;;;10.96;100.00;100243.03;5074129;28;20131;-59
2023/12/25 01:28:10;;;;;;;7.53;1.70;;;;;;;10.95;100.00;100263.25;5074096;28;20135;-59
2023/12/25 01:30:38;;;;;;;12.85;3.10;;;;;;;10.92;100.00;100271.38;5074060;28;20530;-59
2023/12/25 01:33:08;;;;;;;11.30;2.60;;;;;;;10.87;100.00;100270.88;5073850;28;20075;-59
2023/12/25 01:35:36;;;;;;;11.05;2.53;;;;;;;10.84;100.00;100260.59;5071077;28;20459;-59
2023/12/25 01:38:04;;;;;;;8.30;2.03;;;;;;;10.85;100.00;100258.81;5070382;28;20082;-60
2023/12/25 01:40:32;;;;;;;13.57;2.10;;;;;;;10.83;100.00;100259.75;5069493;28;20499;-60
2023/12/25 01:43:01;;;;;;;10.82;2.08;;;;;;;10.82;100.00;100258.09;5071948;28;20054;-60
2023/12/25 01:45:31;;;;;;;14.05;2.30;;;;;;;10.82;100.00;100257.25;5070992;28;20403;-59
2023/12/25 01:47:59;;;;;;;10.93;2.40;;;;;;;10.81;100.00;100245.03;5070409;28;20061;-60
2023/12/25 01:50:31;;;;;;;14.18;2.97;;;;;;;10.80;100.00;100243.38;5073660;28;20072;-60
2023/12/25 01:52:59;;;;;;;10.27;2.22;;;;;;;10.80;100.00;100256.53;5072164;28;20095;-59
2023/12/25 01:55:31;;;;;;;13.65;2.40;;;;;;;10.78;100.00;100266.31;5070370;28;20044;-60
2023/12/25 01:57:59;;;;;;;14.20;2.65;;;;;;;10.75;100.00;100266.56;5070458;28;20045;-59
2023/12/25 02:00:27;;;;;;;8.80;1.83;;;;;;;10.77;100.00;100275.16;5073325;28;20056;-59
2023/12/25 02:02:55;;;;;;;9.20;1.73;;;;;;;10.67;100.00;100298.69;5073673;28;20520;-59
2023/12/25 02:05:23;;;;;;;8.57;1.25;;;;;;;10.56;100.00;100288.13;5073267;28;20044;-60
2023/12/25 02:07:54;;;;;;;9.95;1.20;;;;;;;10.50;100.00;100292.06;5071851;28;20040;-59
2023/12/25 02:10:27;;;;;;;5.20;0.93;;;;;;;10.36;100.00;100300.09;5073415;28;20125;-59
2023/12/25 02:12:57;;;;;;;2.92;0.90;;;;;;;10.25;100.00;100296.44;5073374;28;20080;-59
2023/12/25 02:15:26;;;;;;;4.10;1.02;;;;;;;10.11;100.00;100304.47;5073130;28;20044;-59
2023/12/25 02:17:54;;;;;;;4.63;1.30;;;;;;;10.03;100.00;100307.63;5071738;28;20048;-59
2023/12/25 02:20:24;;;;;;;2.63;0.75;;;;;;;9.95;100.00;100284.56;5073172;28;20098;-58
2023/12/25 02:22:55;;;;;;;4.15;0.70;;;;;;;9.85;100.00;100298.44;5073233;28;20052;-59
2023/12/25 02:25:31;;;;;;;3.65;0.93;;;;;;;9.81;100.00;100303.06;5071408;28;20056;-60
2023/12/25 02:28:01;;;;;;;1.52;0.63;;;;;;;9.79;100.00;100307.59;5072922;28;20044;-59
2023/12/25 02:30:29;;;;;;;4.10;0.93;;;;;;;9.71;100.00;100302.06;5071616;28;20553;-59
2023/12/25 02:32:57;;;;;;;3.53;0.70;;;;;;;9.71;100.00;100302.06;5072718;28;20112;-59
2023/12/25 02:35:26;;;;;;;3.50;0.75;;;;;;;9.69;100.00;100299.50;5072040;28;20044;-59
2023/12/25 02:37:55;;;;;;;2.50;1.27;;;;;;;9.68;100.00;100292.59;5072274;28;20098;-60
2023/12/25 02:40:23;;;;;;;3.35;1.00;;;;;;;9.71;100.00;100302.06;5069507;28;20051;-59
2023/12/25 02:42:51;;;;;;;3.42;1.00;;;;;;;9.75;100.00;100300.91;5067918;28;20415;-60
2023/12/25 02:45:21;;;;;;;2.60;0.90;;;;;;;9.80;100.00;100306.63;5069104;28;20131;-60
2023/12/25 02:47:49;;;;;;;5.47;0.90;;;;;;;9.84;100.00;100292.34;5068956;28;20051;-59
2023/12/25 02:50:18;;;;;;;10.10;1.80;;;;;;;9.95;100.00;100288.94;5069371;28;20036;-59
2023/12/25 02:52:49;;;;;;;13.95;2.20;;;;;;;9.98;100.00;100294.00;5071766;28;20385;-59
2023/12/25 02:55:17;;;;;;;15.55;2.33;;;;;;;10.11;100.00;100278.19;5071090;28;20123;-59
2023/12/25 02:57:45;;;;;;;17.85;2.85;;;;;;;10.20;100.00;100271.41;5068108;28;20086;-60
2023/12/25 03:00:15;;;;;;;14.10;2.83;;;;;;;10.28;100.00;100272.56;5070601;28;20063;-59
2023/12/25 03:02:44;;;;;;;13.80;2.38;;;;;;;10.36;100.00;100271.19;5072286;28;20120;-59
2023/12/25 03:05:13;;;;;;;12.65;3.20;;;;;;;10.39;100.00;100265.69;5070682;28;20052;-59
2023/12/25 03:07:41;;;;;;;13.63;3.05;;;;;;;10.40;100.00;100270.00;5071970;28;20051;-59
2023/12/25 03:10:09;;;;;;;17.33;2.67;;;;;;;10.41;100.00;100275.16;5072061;28;20454;-59
2023/12/25 03:12:37;;;;;;;13.25;2.78;;;;;;;10.41;100.00;100277.78;5072262;28;20055;-60
2023/12/25 03:15:06;;;;;;;11.52;2.58;;;;;;;10.43;100.00;100281.13;5071914;28;20555;-60
2023/12/25 03:17:34;;;;;;;10.05;2.42;;;;;;;10.43;100.00;100282.91;5071929;28;20040;-59
2023/12/25 03:20:05;;;;;;;11.75;2.20;;;;;;;10.42;100.00;100279.47;5072149;28;20052;-59
2023/12/25 03:22:36;;;;;;;14.50;3.42;;;;;;;10.43;100.00;100293.44;5071869;28;20044;-59
2023/12/25 03:25:05;;;;;;;14.45;2.20;;;;;;;10.41;100.00;100298.81;5071846;28;20501;-60
2023/12/25 03:27:33;;;;;;;13.38;2.60;;;;;;;10.42;100.00;100297.03;5071890;28;20087;-59
2023/12/25 03:30:02;;;;;;;13.35;2.75;;;;;;;10.44;100.00;100303.00;5072003;28;20519;-60
2023/12/25 03:32:30;;;;;;;13.73;2.83;;;;;;;10.45;100.00;100316.03;5072126;28;20516;-59
2023/12/25 03:34:59;;;;;;;16.05;2.80;;;;;;;10.46;100.00;100328.22;5071727;28;20044;-60
2023/12/25 03:37:28;;;;;;;17.27;2.22;;;;;;;10.47;100.00;100326.44;5071739;28;20156;-59
2023/12/25 03:39:57;;;;;;;16.13;2.60;;;;;;;10.47;100.00;100327.28;5072120;28;20407;-60
2023/12/25 03:42:25;;;;;;;14.57;2.38;;;;;;;10.52;100.00;100321.69;5071726;28;20107;-59
2023/12/25 03:44:53;;;;;;;12.30;2.55;;;;;;;10.53;100.00;100320.75;5072381;28;20048;-59
2023/12/25 03:47:21;;;;;;;18.42;2.33;;;;;;;10.56;100.00;100317.88;5075660;28;20499;-59
2023/12/25 03:49:50;;;;;;;9.75;1.88;;;;;;;10.57;100.00;100322.19;5075963;28;20049;-59
2023/12/25 03:52:18;;;;;;;15.95;2.30;;;;;;;10.64;100.00;100317.31;5075872;28;20041;-59
2023/12/25 03:54:48;;;;;;;10.48;2.30;;;;;;;10.60;100.00;100332.47;5073867;28;20094;-59
2023/12/25 03:57:16;;;;;;;10.93;1.73;;;;;;;10.61;100.00;100334.16;5071875;28;20105;-59
2023/12/25 03:59:44;;;;;;;12.23;1.92;;;;;;;10.63;100.00;100331.41;5075590;28;20056;-60
2023/12/25 04:02:12;;;;;;;12.77;2.53;;;;;;;10.63;100.00;100334.03;5075728;28;20056;-59
2023/12/25 04:04:40;;;;;;;15.80;2.67;;;;;;;10.60;100.00;100332.47;5075741;28;20165;-60
2023/12/25 04:07:08;;;;;;;15.95;2.05;;;;;;;10.57;100.00;100322.19;5074419;28;20059;-59
2023/12/25 04:09:37;;;;;;;14.77;2.78;;;;;;;10.60;100.00;100327.22;5075311;28;20041;-59
2023/12/25 04:12:07;;;;;;;13.20;2.40;;;;;;;10.59;100.00;100328.19;5075683;28;20104;-59
2023/12/25 04:14:37;;;;;;;13.07;2.35;;;;;;;10.59;100.00;100336.06;5075518;28;20056;-59
2023/12/25 04:17:06;;;;;;;12.88;2.38;;;;;;;10.60;100.00;100324.59;5072670;28;20186;-60
2023/12/25 04:19:34;;;;;;;10.98;3.05;;;;;;;10.62;100.00;100320.06;5072268;28;20098;-60
2023/12/25 04:22:05;;;;;;;12.63;2.28;;;;;;;10.62;100.00;100325.31;5074684;28;20048;-60
2023/12/25 04:24:33;;;;;;;13.50;2.38;;;;;;;10.61;100.00;100331.53;5075317;28;20115;-60
2023/12/25 04:27:01;;;;;;;10.45;1.98;;;;;;;10.61;100.00;100328.91;5073503;28;20052;-60
2023/12/25 04:29:31;;;;;;;11.57;1.90;;;;;;;10.63;100.00;100337.53;5071544;28;20048;-49
2023/12/25 04:31:59;;;;;;;11.77;2.45;;;;;;;10.61;100.00;100321.00;5073291;28;20055;-45
2023/12/25 04:34:29;;;;;;;9.80;1.83;;;;;;;10.58;100.00;100321.25;5074922;28;20052;-60
2023/12/25 04:37:00;;;;;;;13.75;2.30;;;;;;;10.62;100.00;100308.69;5074834;28;20446;-60
2023/12/25 04:39:28;;;;;;;16.20;2.42;;;;;;;10.58;100.00;100334.38;5074573;28;20137;-60
2023/12/25 04:41:57;;;;;;;15.32;2.42;;;;;;;10.59;100.00;100325.56;5072788;28;20045;-51
2023/12/25 04:44:25;;;;;;;11.57;2.58;;;;;;;10.59;100.00;100319.44;5071385;28;20086;-48
2023/12/25 04:46:54;;;;;;;13.40;2.38;;;;;;;10.58;100.00;100313.34;5074002;28;20727;-46
2023/12/25 04:49:22;;;;;;;17.00;2.80;;;;;;;10.58;100.00;100315.13;5073887;28;20076;-45
2023/12/25 04:51:51;;;;;;;14.02;2.30;;;;;;;10.61;100.00;100317.56;5071383;28;20040;-47
2023/12/25 04:54:20;;;;;;;11.57;2.00;;;;;;;10.59;100.00;100312.41;5072840;28;20384;-60
2023/12/25 04:56:51;;;;;;;15.90;2.38;;;;;;;10.59;100.00;100320.31;5073767;28;20059;-60
2023/12/25 04:59:21;;;;;;;12.07;2.47;;;;;;;10.59;100.00;100322.94;5073907;28;20058;-58
2023/12/25 05:01:50;;;;;;;12.20;2.90;;;;;;;10.59;100.00;100330.81;5074360;28;20468;-60
2023/12/25 05:04:20;;;;;;;12.52;2.10;;;;;;;10.61;100.00;100322.81;5074331;28;20052;-60
2023/12/25 05:06:48;;;;;;;12.73;2.50;;;;;;;10.67;100.00;100311.00;5074341;28;20047;-58
2023/12/25 05:09:16;;;;;;;8.18;1.70;;;;;;;10.63;100.00;100311.22;5073967;28;20081;-58
2023/12/25 05:11:45;;;;;;;10.95;1.77;;;;;;;10.63;100.00;100315.63;5074336;28;20055;-59
2023/12/25 05:14:16;;;;;;;9.50;2.40;;;;;;;10.65;100.00;100326.91;5074484;28;20051;-59
2023/12/25 05:16:44;;;;;;;13.27;2.35;;;;;;;10.64;100.00;100327.84;5074174;28;20054;-59
2023/12/25 05:19:12;;;;;;;11.07;2.03;;;;;;;10.63;100.00;100321.75;5074180;28;20457;-60
2023/12/25 05:21:42;;;;;;;13.88;1.80;;;;;;;10.62;100.00;100309.53;5072993;28;20076;-59
2023/12/25 05:24:10;;;;;;;11.95;1.95;;;;;;;10.63;100.00;100303.34;5069514;28;20048;-58
2023/12/25 05:26:38;;;;;;;8.40;1.98;;;;;;;10.69;100.00;100303.81;5070733;28;20507;-59
2023/12/25 05:29:06;;;;;;;9.77;1.77;;;;;;;10.65;100.00;100311.94;5073004;28;20045;-58
2023/12/25 05:31:34;;;;;;;9.43;2.05;;;;;;;10.67;100.00;100317.09;5074022;28;20063;-59
2023/12/25 05:34:02;;;;;;;7.00;1.60;;;;;;;10.67;100.00;100317.09;5073986;28;20499;-58
2023/12/25 05:36:31;;;;;;;11.55;1.80;;;;;;;10.67;100.00;100322.34;5073775;28;20432;-60
2023/12/25 05:39:00;;;;;;;8.18;1.52;;;;;;;10.69;100.00;100327.47;5073985;28;20048;-59
2023/12/25 05:41:41;;;;;;;11.15;1.85;;;;;;;10.68;100.00;100323.19;5072393;28;20056;-59
2023/12/25 05:44:09;;;;;;;10.00;1.95;;;;;;;10.63;100.00;100319.13;5073941;28;20048;-59
2023/12/25 05:46:38;;;;;;;12.13;2.15;;;;;;;10.64;100.00;100322.56;5073727;28;20052;-59
2023/12/25 05:49:06;;;;;;;9.27;1.60;;;;;;;10.61;100.00;100339.41;5073592;28;20128;-59
2023/12/25 05:51:35;;;;;;;10.95;1.80;;;;;;;10.59;100.00;100336.06;5070723;28;20403;-59
2023/12/25 05:54:06;;;;;;;7.15;1.58;;;;;;;10.58;100.00;100334.38;5069828;28;20053;-59
2023/12/25 05:56:34;;;;;;;7.45;1.40;;;;;;;10.59;100.00;100346.59;5068040;28;20132;-60
2023/12/25 05:59:03;;;;;;;8.52;1.48;;;;;;;10.60;100.00;100336.91;5068802;28;20045;-59
2023/12/25 06:01:31;;;;;;;7.05;1.80;;;;;;;10.60;100.00;100340.38;5073310;28;20057;-59
2023/12/25 06:04:00;;;;;;;8.95;1.50;;;;;;;10.61;100.00;100336.78;5073288;28;20048;-59
2023/12/25 06:06:29;;;;;;;10.55;1.58;;;;;;;10.60;100.00;100343.00;5071985;28;20052;-60
2023/12/25 06:08:57;;;;;;;9.43;1.80;;;;;;;10.63;100.00;100341.94;5072114;28;20055;-59
2023/12/25 06:11:26;;;;;;;7.43;1.50;;;;;;;10.59;100.00;100336.06;5073069;28;20044;-59
2023/12/25 06:13:55;;;;;;;7.93;1.75;;;;;;;10.58;100.00;100339.66;5073317;28;20086;-59
2023/12/25 06:16:23;;;;;;;9.48;2.30;;;;;;;10.57;100.00;100348.47;5069612;28;20743;-59
2023/12/25 06:18:51;;;;;;;8.30;2.00;;;;;;;10.58;100.00;100344.06;5068997;28;20491;-59
2023/12/25 06:21:20;;;;;;;10.43;2.70;;;;;;;10.58;100.00;100344.91;5072254;28;20546;-60
2023/12/25 06:23:48;;;;;;;6.78;1.90;;;;;;;10.57;100.00;100345.84;5069543;28;20044;-59
2023/12/25 06:26:16;;;;;;;8.70;2.13;;;;;;;10.54;100.00;100347.84;5069855;28;20110;-59
2023/12/25 06:28:46;;;;;;;11.52;2.22;;;;;;;10.52;100.00;100361.13;5072847;28;20048;-59
2023/12/25 06:31:14;;;;;;;12.07;2.40;;;;;;;10.52;100.00;100355.84;5072911;28;20131;-59
2023/12/25 06:33:42;;;;;;;6.15;1.90;;;;;;;10.48;100.00;100352.63;5072843;28;20045;-59
2023/12/25 06:36:11;;;;;;;11.23;2.47;;;;;;;10.46;100.00;100338.75;5072829;28;20063;-59
2023/12/25 06:38:39;;;;;;;6.35;1.67;;;;;;;10.44;100.00;100359.06;5071114;28;20052;-59
2023/12/25 06:41:07;;;;;;;8.93;1.60;;;;;;;10.43;100.00;100353.88;5069040;28;20137;-59
2023/12/25 06:43:38;;;;;;;6.15;1.40;;;;;;;10.44;100.00;100360.84;5070585;28;20116;-59
2023/12/25 06:46:07;;;;;;;7.75;1.48;;;;;;;10.38;100.00;100356.03;5072496;28;20068;-59
2023/12/25 06:48:35;;;;;;;3.70;1.35;;;;;;;10.39;100.00;100358.56;5072298;28;20052;-60
2023/12/25 06:51:04;;;;;;;3.97;0.93;;;;;;;10.35;100.00;100354.47;5072602;28;20037;-59
2023/12/25 06:53:32;;;;;;;5.05;0.98;;;;;;;10.28;100.00;100361.91;5070058;28;20135;-59
2023/12/25 06:56:00;;;;;;;6.00;0.90;;;;;;;10.29;100.00;100363.59;5068358;28;20041;-59
2023/12/25 06:58:28;;;;;;;4.32;0.80;;;;;;;10.27;100.00;100368.13;5070934;28;20492;-58
2023/12/25 07:00:56;;;;;;;4.90;0.90;;;;;;;10.24;100.00;100378.84;5072095;28;20123;-59
2023/12/25 07:03:26;;;;;;;4.28;0.90;;;;;;;10.25;100.00;100372.66;5072180;28;20048;-59
2023/12/25 07:05:54;;;;;;;4.18;0.80;;;;;;;10.23;100.00;100369.28;5072181;28;20055;-59
2023/12/25 07:08:27;;;;;;;6.90;1.00;;;;;;;10.23;100.00;100366.66;5069645;28;20507;-59
2023/12/25 07:10:56;;;;;;;4.95;1.02;;;;;;;10.18;100.00;100368.75;5068953;28;20056;-60
2023/12/25 07:13:24;;;;;;;5.20;0.90;;;;;;;10.13;100.00;100368.28;5065534;28;20066;-60
2023/12/25 07:15:52;;;;;;;4.90;0.98;;;;;;;10.11;100.00;100373.59;5068253;28;20079;-60
2023/12/25 07:18:20;;;;;;;4.20;0.80;;;;;;;10.08;100.00;100375.63;5069256;28;20667;-59
2023/12/25 07:20:50;;;;;;;6.65;0.85;;;;;;;10.10;100.00;100392.97;5071510;28;20123;-60
2023/12/25 07:23:21;;;;;;;3.47;0.70;;;;;;;10.06;100.00;100402.03;5071880;28;20048;-59
2023/12/25 07:25:50;;;;;;;2.00;0.88;;;;;;;10.04;100.00;100400.44;5072175;28;20056;-59
2023/12/25 07:28:18;;;;;;;3.30;0.75;;;;;;;10.01;100.00;100406.75;5070485;28;20044;-59
2023/12/25 07:30:47;;;;;;;2.97;0.80;;;;;;;9.98;100.00;100415.69;5068067;28;20056;-60
2023/12/25 07:33:15;;;;;;;1.92;0.75;;;;;;;10.00;100.00;100412.94;5070076;28;20056;-59
2023/12/25 07:35:44;;;;;;;3.42;1.00;;;;;;;9.98;100.00;100420.09;5070653;28;20051;-59
2023/12/25 07:38:13;;;;;;;4.00;0.82;;;;;;;9.97;100.00;100427.13;5071580;28;20049;-60
2023/12/25 07:40:42;;;;;;;2.97;0.70;;;;;;;9.97;100.00;100432.38;5067160;28;20033;-60
2023/12/25 07:43:10;;;;;;;3.25;0.90;;;;;;;10.02;100.00;100441.72;5068054;28;20040;-59
2023/12/25 07:45:39;;;;;;;2.90;0.80;;;;;;;10.03;100.00;100444.25;5071380;28;20094;-60
2023/12/25 07:48:07;;;;;;;2.78;0.82;;;;;;;9.98;100.00;100436.69;5069922;28;20129;-59
2023/12/25 07:50:36;;;;;;;4.55;1.02;;;;;;;9.96;100.00;100435.94;5071413;28;20060;-60
2023/12/25 07:53:07;;;;;;;5.07;0.70;;;;;;;9.96;100.00;100441.19;5070960;28;20404;-49
2023/12/25 07:55:38;;;;;;;1.58;0.70;;;;;;;9.92;100.00;100437.09;5066592;28;20060;-47
2023/12/25 07:58:06;;;;;;;4.63;1.00;;;;;;;9.92;100.00;100439.72;5068407;28;20145;-46
2023/12/25 08:00:34;;;;;;;4.35;0.90;;;;;;;9.88;100.00;100445.31;5071299;28;20049;-47
2023/12/25 08:03:07;;;;;;;5.25;0.82;;;;;;;9.86;100.00;100453.31;5071611;28;20056;-48
2023/12/25 08:05:35;;;;;;;4.53;0.75;;;;;;;9.84;100.00;100454.34;5071398;28;20402;-47
2023/12/25 08:08:04;;;;;;;6.30;1.17;;;;;;;9.83;100.00;100448.25;5068700;28;20481;-49
2023/12/25 08:10:32;;;;;;;4.53;1.08;;;;;;;9.81;100.00;100448.34;5068046;28;20080;-47
2023/12/25 08:13:02;;;;;;;3.20;0.85;;;;;;;9.81;100.00;100456.22;5069650;28;20040;-46
2023/12/25 08:15:30;;;;;;;4.13;0.90;;;;;;;9.82;100.00;100454.47;5071163;28;20106;-49
2023/12/25 08:17:59;;;;;;;4.20;1.20;;;;;;;9.82;100.00;100451.84;5071210;28;20044;-46
2023/12/25 08:20:28;;;;;;;3.60;1.00;;;;;;;9.84;100.00;100446.47;5071207;28;20377;-48
2023/12/25 08:22:58;;;;;;;4.22;1.02;;;;;;;9.83;100.00;100453.53;5071155;28;20040;-49
2023/12/25 08:25:27;;;;;;;6.28;1.23;;;;;;;9.82;100.00;100454.47;5071142;28;20515;-47
2023/12/25 08:27:55;;;;;;;6.93;1.40;;;;;;;9.87;100.00;100462.00;5071215;28;20048;-50
2023/12/25 08:30:25;;;;;;;5.28;1.35;;;;;;;9.90;100.00;100462.66;5071073;28;20049;-49
2023/12/25 08:32:54;;;;;;;6.03;1.05;;;;;;;9.88;100.00;100469.78;5073548;28;20545;-49
2023/12/25 08:35:23;;;;;;;3.72;1.30;;;;;;;9.89;100.00;100468.84;5073404;28;20185;-50
2023/12/25 08:37:51;;;;;;;8.25;1.30;;;;;;;9.88;100.00;100480.28;5074767;28;20072;-51
2023/12/25 08:40:20;;;;;;;6.13;1.05;;;;;;;9.89;100.00;100489.03;5074990;28;20072;-46
2023/12/25 08:42:48;;;;;;;4.43;1.45;;;;;;;9.88;100.00;100495.22;5074350;28;20048;-46
2023/12/25 08:45:17;;;;;;;4.90;1.33;;;;;;;9.89;100.00;100491.66;5074417;28;20032;-49
2023/12/25 08:47:48;;;;;;;6.22;0.90;;;;;;;9.89;100.00;100505.63;5074820;28;20109;-50
2023/12/25 08:50:16;;;;;;;3.92;1.00;;;;;;;9.88;100.00;100508.34;5074499;28;20403;-47
2023/12/25 08:52:45;;;;;;;3.92;0.90;;;;;;;9.86;100.00;100497.97;5074719;28;20053;-46
2023/12/25 08:55:13;;;;;;;4.53;1.13;;;;;;;9.84;100.00;100499.81;5074668;28;20078;-45
2023/12/25 08:57:41;;;;;;;9.00;1.80;;;;;;;9.87;100.00;100497.00;5074535;28;20049;-47
2023/12/25 09:00:11;;;;;;;5.07;1.48;;;;;;;9.87;100.00;100497.00;5074309;28;20399;-45
2023/12/25 09:02:41;;;;;;;4.73;1.17;;;;;;;9.87;100.00;100491.75;5074726;28;20547;-45
2023/12/25 09:05:11;;;;;;;5.60;1.30;;;;;;;9.87;100.00;100499.66;5074508;28;20055;-47
2023/12/25 09:07:40;;;;;;;6.50;1.25;;;;;;;9.88;100.00;100498.69;5074331;28;20045;-46
2023/12/25 09:10:11;;;;;;;5.70;1.10;;;;;;;9.91;100.00;100508.13;5074221;28;20452;-46
2023/12/25 09:12:39;;;;;;;5.07;1.20;;;;;;;9.90;100.00;100517.81;5074273;28;20530;-47
2023/12/25 09:15:08;;;;;;;3.90;1.10;;;;;;;9.89;100.00;100521.38;5074170;28;20091;-47
2023/12/25 09:17:37;;;;;;;6.75;1.42;;;;;;;9.91;100.00;100524.75;5074458;28;20484;-46
2023/12/25 09:20:07;;;;;;;4.57;1.60;;;;;;;9.93;100.00;100516.78;5074141;28;20087;-48
2023/12/25 09:22:37;;;;;;;3.70;1.20;;;;;;;9.94;100.00;100529.78;5073846;28;20044;-47
2023/12/25 09:25:07;;;;;;;4.75;1.20;;;;;;;9.94;100.00;100529.78;5074082;28;20060;-48
2023/12/25 09:27:35;;;;;;;7.53;1.40;;;;;;;9.96;100.00;100525.25;5074050;28;20508;-46
2023/12/25 09:30:08;;;;;;;4.72;1.20;;;;;;;9.95;100.00;100533.25;5072570;28;20046;-46
2023/12/25 09:32:36;;;;;;;4.95;1.10;;;;;;;9.95;100.00;100530.63;5074047;28;20044;-46
2023/12/25 09:35:08;;;;;;;5.65;1.30;;;;;;;9.93;100.00;100529.91;5074075;28;20361;-49
2023/12/25 09:37:38;;;;;;;3.97;1.30;;;;;;;9.98;100.00;100533.06;5073639;28;20453;-49
2023/12/25 09:40:10;;;;;;;4.45;1.02;;;;;;;9.97;100.00;100544.50;5074044;28;20049;-49
2023/12/25 09:42:38;;;;;;;3.00;1.15;;;;;;;9.96;100.00;100546.28;5073487;28;20036;-49
2023/12/25 09:45:10;;;;;;;3.25;1.20;;;;;;;9.97;100.00;100555.84;5073783;28;20484;-46
2023/12/25 09:47:39;;;;;;;5.00;1.40;;;;;;;10.00;100.00;100553.97;5073790;28;20079;-47
2023/12/25 09:50:08;;;;;;;4.20;1.10;;;;;;;9.96;100.00;100558.59;5073495;28;20041;-48
2023/12/25 09:52:38;;;;;;;4.93;1.27;;;;;;;9.94;100.00;100549.97;5073383;28;20044;-46
2023/12/25 09:55:05;;;;;;;3.92;1.00;;;;;;;9.97;100.00;100552.41;5073386;28;20495;-48
2023/12/25 09:57:35;;;;;;;5.22;1.60;;;;;;;9.97;100.00;100544.50;5073545;28;20051;-48
2023/12/25 10:00:04;;;;;;;4.43;1.23;;;;;;;9.97;100.00;100534.84;5073118;28;20473;-49
2023/12/25 10:02:37;;;;;;;5.15;1.20;;;;;;;9.97;100.00;100532.22;5073596;28;20059;-49
2023/12/25 10:05:07;;;;;;;4.50;1.30;;;;;;;10.05;100.00;100530.84;5073467;28;20036;-50
2023/12/25 10:07:36;;;;;;;4.38;1.25;;;;;;;10.05;100.00;100522.97;5073046;28;20052;-50
2023/12/25 10:10:06;;;;;;;6.25;1.50;;;;;;;10.07;100.00;100526.34;5073073;28;20049;-50
2023/12/25 10:12:35;;;;;;;3.65;1.33;;;;;;;10.08;100.00;100504.38;5072986;28;20052;-49
2023/12/25 10:15:05;;;;;;;4.70;1.30;;;;;;;10.11;100.00;100512.03;5073088;28;20407;-47
2023/12/25 10:17:33;;;;;;;3.05;1.10;;;;;;;10.15;100.00;100519.59;5073080;28;20102;-49
2023/12/25 10:20:01;;;;;;;5.53;1.30;;;;;;;10.18;100.00;100536.13;5072775;28;20053;-49
2023/12/25 10:22:31;;;;;;;3.05;1.20;;;;;;;10.18;100.00;100544.84;5072953;28;20033;-60
2023/12/25 10:25:09;;;;;;;3.42;0.90;;;;;;;10.23;100.00;100550.63;5072928;28;20072;-58
2023/12/25 10:27:38;;;;;;;9.40;1.80;;;;;;;10.26;100.00;100554.84;5072857;28;21076;-59
2023/12/25 10:30:16;;;;;;;6.28;1.15;;;;;;;10.30;100.00;100548.41;5072489;28;20048;-59
2023/12/25 10:32:45;;;;;;;3.28;1.15;;;;;;;10.30;100.00;100557.13;5071441;28;20569;-59
2023/12/25 10:35:18;;;;;;;5.18;1.20;;;;;;;10.31;100.00;100542.22;5072586;28;20518;-59
2023/12/25 10:37:47;;;;;;;6.03;1.00;;;;;;;10.33;100.00;100542.94;5072534;28;20094;-46
2023/12/25 10:40:21;;;;;;;3.92;1.00;;;;;;;10.32;100.00;100528.09;5072872;28;20095;-59
2023/12/25 10:42:51;;;;;;;5.40;1.77;;;;;;;10.31;100.00;100535.16;5071440;28;20041;-59
2023/12/25 10:45:22;;;;;;;7.10;1.13;;;;;;;10.34;100.00;100528.84;5072577;28;20555;-59
2023/12/25 10:47:52;;;;;;;4.88;1.02;;;;;;;10.38;100.00;100529.53;5072582;28;20056;-59
2023/12/25 10:50:24;;;;;;;4.00;1.13;;;;;;;10.37;100.00;100531.28;5072498;28;20055;-50
2023/12/25 10:52:57;;;;;;;3.33;0.93;;;;;;;10.37;100.00;100523.41;5072353;28;20056;-48
2023/12/25 10:55:36;;;;;;;2.77;0.90;;;;;;;10.37;100.00;100519.97;5070535;28;20143;-48
2023/12/25 10:58:05;;;;;;;6.70;1.23;;;;;;;10.39;100.00;100520.66;5071049;28;20467;-47
2023/12/25 11:00:36;;;;;;;5.72;1.25;;;;;;;10.40;100.00;100527.63;5070251;28;20064;-48
2023/12/25 11:03:06;;;;;;;4.90;1.42;;;;;;;10.41;100.00;100547.72;5072122;28;20076;-48
2023/12/25 11:05:36;;;;;;;4.97;1.02;;;;;;;10.40;100.00;100540.75;5071972;28;20045;-49
2023/12/25 11:08:05;;;;;;;3.50;1.20;;;;;;;10.41;100.00;100539.81;5071853;28;20125;-46
2023/12/25 11:10:37;;;;;;;3.17;1.00;;;;;;;10.40;100.00;100538.13;5071564;28;20537;-46
2023/12/25 11:13:06;;;;;;;4.38;0.98;;;;;;;10.39;100.00;100539.06;5066156;28;20040;-46
2023/12/25 11:15:35;;;;;;;4.82;1.00;;;;;;;10.44;100.00;100531.72;5069097;28;20048;-45
2023/12/25 11:18:05;;;;;;;3.95;1.23;;;;;;;10.43;100.00;100530.88;5071935;28;20048;-46
2023/12/25 11:20:33;;;;;;;4.65;1.33;;;;;;;10.41;100.00;100524.06;5071799;28;20557;-46
2023/12/25 11:23:07;;;;;;;3.30;1.00;;;;;;;10.41;100.00;100526.69;5071531;28;20047;-47
2023/12/25 11:25:38;;;;;;;4.20;0.90;;;;;;;10.45;100.00;100522.88;5071327;28;20049;-46